Terminal Aerodrome Forecast
Issued by NWS Wichita, KS

Home | Current Version | Previous Version | Text Only | Print | Product List | Glossary On
Versions: 1 2 3 4 5 6 7 8 9 10 11 12 13
000
FTUS43 KICT 211100
TAFICT
TAF
KICT 211120Z 2112/2212 18014KT P6SM SCT250
     FM211500 19022G30KT P6SM FEW060 SCT250
     FM220100 17015KT P6SM SCT130=

USA.gov is the U.S. government's official web portal to all federal, state and local government web resources and services.